sensor_id;sensor_type;location;lat;lon;timestamp;temperature;humidity
3854;DHT22;1942;48.770;8.934;2022-07-29T00:01:21;19.60;99.90
3854;DHT22;1942;48.770;8.934;2022-07-29T00:03:48;19.60;99.90
3854;DHT22;1942;48.770;8.934;2022-07-29T00:06:16;19.60;99.90
3854;DHT22;1942;48.770;8.934;2022-07-29T00:08:43;19.60;99.90
3854;DHT22;1942;48.770;8.934;2022-07-29T00:11:10;19.50;99.90
3854;DHT22;1942;48.770;8.934;2022-07-29T00:13:37;19.50;99.90
3854;DHT22;1942;48.770;8.934;2022-07-29T00:16:04;19.50;99.90
3854;DHT22;1942;48.770;8.934;2022-07-29T00:18:30;19.50;99.90
3854;DHT22;1942;48.770;8.934;2022-07-29T00:20:57;19.50;99.90
3854;DHT22;1942;48.770;8.934;2022-07-29T00:23:25;19.50;99.90
3854;DHT22;1942;48.770;8.934;2022-07-29T00:25:52;19.40;99.90
3854;DHT22;1942;48.770;8.934;2022-07-29T00:28:19;19.50;99.90
3854;DHT22;1942;48.770;8.934;2022-07-29T00:30:46;19.40;99.90
3854;DHT22;1942;48.770;8.934;2022-07-29T00:33:12;19.40;99.90
3854;DHT22;1942;48.770;8.934;2022-07-29T00:35:39;19.30;99.90
3854;DHT22;1942;48.770;8.934;2022-07-29T00:38:12;19.30;99.90
3854;DHT22;1942;48.770;8.934;2022-07-29T00:40:41;19.30;99.90
3854;DHT22;1942;48.770;8.934;2022-07-29T00:43:08;19.30;99.90
3854;DHT22;1942;48.770;8.934;2022-07-29T00:45:35;19.30;99.90
3854;DHT22;1942;48.770;8.934;2022-07-29T00:48:03;19.30;99.90
3854;DHT22;1942;48.770;8.934;2022-07-29T00:50:30;19.30;99.90
3854;DHT22;1942;48.770;8.934;2022-07-29T00:52:57;19.30;99.90
3854;DHT22;1942;48.770;8.934;2022-07-29T00:55:25;19.30;99.90
3854;DHT22;1942;48.770;8.934;2022-07-29T00:57:53;19.20;99.90
3854;DHT22;1942;48.770;8.934;2022-07-29T01:00:24;19.20;99.90
3854;DHT22;1942;48.770;8.934;2022-07-29T01:02:51;19.20;99.90
3854;DHT22;1942;48.770;8.934;2022-07-29T01:05:19;19.10;99.90
3854;DHT22;1942;48.770;8.934;2022-07-29T01:07:48;19.10;99.90
3854;DHT22;1942;48.770;8.934;2022-07-29T01:10:16;19.10;99.90
3854;DHT22;1942;48.770;8.934;2022-07-29T01:12:47;19.10;99.90
3854;DHT22;1942;48.770;8.934;2022-07-29T01:15:15;19.00;99.90
3854;DHT22;1942;48.770;8.934;2022-07-29T01:17:44;19.00;99.90
3854;DHT22;1942;48.770;8.934;2022-07-29T01:20:16;19.00;99.90
3854;DHT22;1942;48.770;8.934;2022-07-29T01:23:01;19.00;99.90
3854;DHT22;1942;48.770;8.934;2022-07-29T01:25:50;19.00;99.90
3854;DHT22;1942;48.770;8.934;2022-07-29T01:28:54;19.00;99.90
3854;DHT22;1942;48.770;8.934;2022-07-29T01:31:27;18.90;99.90
3854;DHT22;1942;48.770;8.934;2022-07-29T01:33:58;18.90;99.90
3854;DHT22;1942;48.770;8.934;2022-07-29T01:36:29;18.90;99.90
3854;DHT22;1942;48.770;8.934;2022-07-29T01:39:01;18.90;99.90
3854;DHT22;1942;48.770;8.934;2022-07-29T01:41:31;18.90;99.90
3854;DHT22;1942;48.770;8.934;2022-07-29T01:44:04;18.90;99.90
3854;DHT22;1942;48.770;8.934;2022-07-29T01:46:35;18.90;99.90
3854;DHT22;1942;48.770;8.934;2022-07-29T01:49:08;18.90;99.90
3854;DHT22;1942;48.770;8.934;2022-07-29T01:51:41;18.90;99.90
3854;DHT22;1942;48.770;8.934;2022-07-29T01:54:14;18.90;99.90
3854;DHT22;1942;48.770;8.934;2022-07-29T01:56:43;19.00;99.90
3854;DHT22;1942;48.770;8.934;2022-07-29T01:59:13;19.00;99.90
3854;DHT22;1942;48.770;8.934;2022-07-29T02:01:42;19.00;99.90
3854;DHT22;1942;48.770;8.934;2022-07-29T02:04:11;19.00;99.90
3854;DHT22;1942;48.770;8.934;2022-07-29T02:06:40;19.00;99.90
3854;DHT22;1942;48.770;8.934;2022-07-29T02:09:10;19.00;99.90
3854;DHT22;1942;48.770;8.934;2022-07-29T02:11:38;19.00;99.90
3854;DHT22;1942;48.770;8.934;2022-07-29T02:14:07;19.00;99.90
3854;DHT22;1942;48.770;8.934;2022-07-29T02:16:39;19.10;99.90
3854;DHT22;1942;48.770;8.934;2022-07-29T02:19:07;19.10;99.90
3854;DHT22;1942;48.770;8.934;2022-07-29T02:21:35;19.10;99.90
3854;DHT22;1942;48.770;8.934;2022-07-29T02:24:02;19.10;99.90
3854;DHT22;1942;48.770;8.934;2022-07-29T02:26:32;19.20;99.90
3854;DHT22;1942;48.770;8.934;2022-07-29T02:29:00;19.20;99.90
3854;DHT22;1942;48.770;8.934;2022-07-29T02:31:32;19.20;99.90
3854;DHT22;1942;48.770;8.934;2022-07-29T02:34:02;19.30;99.90
3854;DHT22;1942;48.770;8.934;2022-07-29T02:36:31;19.30;99.90
3854;DHT22;1942;48.770;8.934;2022-07-29T02:42:22;19.30;99.90
3854;DHT22;1942;48.770;8.934;2022-07-29T02:44:50;19.20;99.90
3854;DHT22;1942;48.770;8.934;2022-07-29T02:47:21;19.20;99.90
3854;DHT22;1942;48.770;8.934;2022-07-29T02:49:55;19.30;99.90
3854;DHT22;1942;48.770;8.934;2022-07-29T02:52:26;19.30;99.90
3854;DHT22;1942;48.770;8.934;2022-07-29T02:54:58;19.30;99.90
3854;DHT22;1942;48.770;8.934;2022-07-29T02:57:31;19.40;99.90
3854;DHT22;1942;48.770;8.934;2022-07-29T03:00:02;19.30;99.90
3854;DHT22;1942;48.770;8.934;2022-07-29T03:02:34;19.30;99.90
3854;DHT22;1942;48.770;8.934;2022-07-29T03:05:04;19.30;99.90
3854;DHT22;1942;48.770;8.934;2022-07-29T03:07:33;19.20;99.90
3854;DHT22;1942;48.770;8.934;2022-07-29T03:10:02;19.20;99.90
3854;DHT22;1942;48.770;8.934;2022-07-29T03:12:29;19.10;99.90
3854;DHT22;1942;48.770;8.934;2022-07-29T03:14:57;19.10;99.90
3854;DHT22;1942;48.770;8.934;2022-07-29T03:17:25;19.10;99.90
3854;DHT22;1942;48.770;8.934;2022-07-29T03:19:52;19.10;99.90
3854;DHT22;1942;48.770;8.934;2022-07-29T03:22:21;19.10;99.90
3854;DHT22;1942;48.770;8.934;2022-07-29T03:24:47;19.00;99.90
3854;DHT22;1942;48.770;8.934;2022-07-29T03:27:14;19.10;99.90
3854;DHT22;1942;48.770;8.934;2022-07-29T03:29:41;19.00;99.90
3854;DHT22;1942;48.770;8.934;2022-07-29T03:32:08;18.90;99.90
3854;DHT22;1942;48.770;8.934;2022-07-29T03:34:35;18.90;99.90
3854;DHT22;1942;48.770;8.934;2022-07-29T03:37:03;18.80;99.90
3854;DHT22;1942;48.770;8.934;2022-07-29T03:39:35;18.80;99.90
3854;DHT22;1942;48.770;8.934;2022-07-29T03:42:05;18.80;99.90
3854;DHT22;1942;48.770;8.934;2022-07-29T03:44:33;18.70;99.90
3854;DHT22;1942;48.770;8.934;2022-07-29T03:47:01;18.70;99.90
3854;DHT22;1942;48.770;8.934;2022-07-29T03:49:31;18.70;99.90
3854;DHT22;1942;48.770;8.934;2022-07-29T03:51:58;18.70;99.90
3854;DHT22;1942;48.770;8.934;2022-07-29T03:54:26;18.60;99.90
3854;DHT22;1942;48.770;8.934;2022-07-29T03:56:55;18.60;99.90
3854;DHT22;1942;48.770;8.934;2022-07-29T03:59:24;18.60;99.90
3854;DHT22;1942;48.770;8.934;2022-07-29T04:01:51;18.50;99.90
3854;DHT22;1942;48.770;8.934;2022-07-29T04:04:18;18.40;99.90
3854;DHT22;1942;48.770;8.934;2022-07-29T04:06:46;18.30;99.90
3854;DHT22;1942;48.770;8.934;2022-07-29T04:09:13;18.40;99.90
3854;DHT22;1942;48.770;8.934;2022-07-29T04:11:41;18.30;99.90
3854;DHT22;1942;48.770;8.934;2022-07-29T04:14:09;18.20;99.90
3854;DHT22;1942;48.770;8.934;2022-07-29T04:16:36;18.20;99.90
3854;DHT22;1942;48.770;8.934;2022-07-29T04:19:03;18.20;99.90
3854;DHT22;1942;48.770;8.934;2022-07-29T04:21:29;18.20;99.90
3854;DHT22;1942;48.770;8.934;2022-07-29T04:23:56;18.20;99.90
3854;DHT22;1942;48.770;8.934;2022-07-29T04:26:23;18.10;99.90
3854;DHT22;1942;48.770;8.934;2022-07-29T04:28:49;18.10;99.90
3854;DHT22;1942;48.770;8.934;2022-07-29T04:31:17;18.10;99.90
3854;DHT22;1942;48.770;8.934;2022-07-29T04:33:44;18.10;99.90
3854;DHT22;1942;48.770;8.934;2022-07-29T04:36:11;18.10;99.90
3854;DHT22;1942;48.770;8.934;2022-07-29T04:38:38;18.10;99.90
3854;DHT22;1942;48.770;8.934;2022-07-29T04:41:05;18.20;99.90
3854;DHT22;1942;48.770;8.934;2022-07-29T04:43:33;18.20;99.90
3854;DHT22;1942;48.770;8.934;2022-07-29T04:46:00;18.20;99.90
3854;DHT22;1942;48.770;8.934;2022-07-29T04:48:28;18.20;99.90
3854;DHT22;1942;48.770;8.934;2022-07-29T04:50:55;18.20;99.90
3854;DHT22;1942;48.770;8.934;2022-07-29T04:53:22;18.20;99.90
3854;DHT22;1942;48.770;8.934;2022-07-29T04:55:49;18.30;99.90
3854;DHT22;1942;48.770;8.934;2022-07-29T04:58:16;18.30;99.90
3854;DHT22;1942;48.770;8.934;2022-07-29T05:00:43;18.30;99.90
3854;DHT22;1942;48.770;8.934;2022-07-29T05:03:09;18.30;99.90
3854;DHT22;1942;48.770;8.934;2022-07-29T05:05:37;18.30;99.90
3854;DHT22;1942;48.770;8.934;2022-07-29T05:08:04;18.40;99.90
3854;DHT22;1942;48.770;8.934;2022-07-29T05:10:31;18.40;99.90
3854;DHT22;1942;48.770;8.934;2022-07-29T05:12:59;18.50;99.90
3854;DHT22;1942;48.770;8.934;2022-07-29T05:15:26;18.50;99.90
3854;DHT22;1942;48.770;8.934;2022-07-29T05:17:52;18.50;99.90
3854;DHT22;1942;48.770;8.934;2022-07-29T05:20:19;18.60;99.90
3854;DHT22;1942;48.770;8.934;2022-07-29T05:22:52;18.60;99.90
3854;DHT22;1942;48.770;8.934;2022-07-29T05:25:19;18.70;99.90
3854;DHT22;1942;48.770;8.934;2022-07-29T05:27:46;18.70;99.90
3854;DHT22;1942;48.770;8.934;2022-07-29T05:30:13;18.70;99.90
3854;DHT22;1942;48.770;8.934;2022-07-29T05:32:40;18.70;99.90
3854;DHT22;1942;48.770;8.934;2022-07-29T05:35:07;18.80;99.90
3854;DHT22;1942;48.770;8.934;2022-07-29T05:37:34;18.90;99.90
3854;DHT22;1942;48.770;8.934;2022-07-29T05:40:03;19.00;99.90
3854;DHT22;1942;48.770;8.934;2022-07-29T05:42:29;19.00;99.90
3854;DHT22;1942;48.770;8.934;2022-07-29T05:44:56;19.10;99.90
3854;DHT22;1942;48.770;8.934;2022-07-29T05:47:23;19.10;99.90
3854;DHT22;1942;48.770;8.934;2022-07-29T05:49:50;19.20;99.90
3854;DHT22;1942;48.770;8.934;2022-07-29T05:52:17;19.30;99.90
3854;DHT22;1942;48.770;8.934;2022-07-29T05:54:44;19.30;99.90
3854;DHT22;1942;48.770;8.934;2022-07-29T05:57:16;19.40;99.90
3854;DHT22;1942;48.770;8.934;2022-07-29T05:59:43;19.50;99.90
3854;DHT22;1942;48.770;8.934;2022-07-29T06:02:10;19.60;99.90
3854;DHT22;1942;48.770;8.934;2022-07-29T06:04:36;19.80;99.90
3854;DHT22;1942;48.770;8.934;2022-07-29T06:07:03;19.90;99.90
3854;DHT22;1942;48.770;8.934;2022-07-29T06:09:31;19.90;99.90
3854;DHT22;1942;48.770;8.934;2022-07-29T06:11:58;20.10;99.90
3854;DHT22;1942;48.770;8.934;2022-07-29T06:14:26;20.10;99.90
3854;DHT22;1942;48.770;8.934;2022-07-29T06:16:53;20.20;99.90
3854;DHT22;1942;48.770;8.934;2022-07-29T06:19:20;20.30;99.90
3854;DHT22;1942;48.770;8.934;2022-07-29T06:21:47;20.40;99.90
3854;DHT22;1942;48.770;8.934;2022-07-29T06:24:15;20.40;99.90
3854;DHT22;1942;48.770;8.934;2022-07-29T06:26:42;20.50;99.90
3854;DHT22;1942;48.770;8.934;2022-07-29T06:29:09;20.60;99.90
3854;DHT22;1942;48.770;8.934;2022-07-29T06:31:38;20.60;99.90
3854;DHT22;1942;48.770;8.934;2022-07-29T06:34:05;20.70;99.90
3854;DHT22;1942;48.770;8.934;2022-07-29T06:36:34;20.70;99.90
3854;DHT22;1942;48.770;8.934;2022-07-29T06:39:01;20.80;99.90
3854;DHT22;1942;48.770;8.934;2022-07-29T06:41:29;20.70;99.90
3854;DHT22;1942;48.770;8.934;2022-07-29T06:43:56;20.70;99.90
3854;DHT22;1942;48.770;8.934;2022-07-29T06:46:23;20.80;99.90
3854;DHT22;1942;48.770;8.934;2022-07-29T06:48:52;20.80;99.90
3854;DHT22;1942;48.770;8.934;2022-07-29T06:51:18;20.90;99.90
3854;DHT22;1942;48.770;8.934;2022-07-29T06:53:46;21.10;99.90
3854;DHT22;1942;48.770;8.934;2022-07-29T06:56:12;21.20;99.90
3854;DHT22;1942;48.770;8.934;2022-07-29T06:58:39;21.40;99.90
3854;DHT22;1942;48.770;8.934;2022-07-29T07:01:06;21.40;99.90
3854;DHT22;1942;48.770;8.934;2022-07-29T07:03:33;21.50;99.90
3854;DHT22;1942;48.770;8.934;2022-07-29T07:06:01;21.60;99.90
3854;DHT22;1942;48.770;8.934;2022-07-29T07:08:28;21.70;99.90
3854;DHT22;1942;48.770;8.934;2022-07-29T07:10:55;21.70;99.90
3854;DHT22;1942;48.770;8.934;2022-07-29T07:13:22;21.70;99.90
3854;DHT22;1942;48.770;8.934;2022-07-29T07:15:49;21.80;99.90
3854;DHT22;1942;48.770;8.934;2022-07-29T07:18:17;21.90;99.90
3854;DHT22;1942;48.770;8.934;2022-07-29T07:20:44;21.80;99.90
3854;DHT22;1942;48.770;8.934;2022-07-29T07:23:12;21.80;99.90
3854;DHT22;1942;48.770;8.934;2022-07-29T07:25:39;21.90;99.90
3854;DHT22;1942;48.770;8.934;2022-07-29T07:28:06;21.90;99.90
3854;DHT22;1942;48.770;8.934;2022-07-29T07:30:32;21.90;99.90
3854;DHT22;1942;48.770;8.934;2022-07-29T07:33:00;22.00;99.90
3854;DHT22;1942;48.770;8.934;2022-07-29T07:35:27;22.10;99.90
3854;DHT22;1942;48.770;8.934;2022-07-29T07:37:53;22.40;99.90
3854;DHT22;1942;48.770;8.934;2022-07-29T07:40:22;22.50;99.90
3854;DHT22;1942;48.770;8.934;2022-07-29T07:42:49;22.50;99.90
3854;DHT22;1942;48.770;8.934;2022-07-29T07:45:15;22.60;99.90
3854;DHT22;1942;48.770;8.934;2022-07-29T07:47:43;22.80;99.90
3854;DHT22;1942;48.770;8.934;2022-07-29T07:50:11;22.80;99.90
3854;DHT22;1942;48.770;8.934;2022-07-29T07:52:46;22.90;99.90
3854;DHT22;1942;48.770;8.934;2022-07-29T07:55:13;22.80;99.90
3854;DHT22;1942;48.770;8.934;2022-07-29T07:57:41;22.90;99.90
3854;DHT22;1942;48.770;8.934;2022-07-29T08:00:09;23.00;99.90
3854;DHT22;1942;48.770;8.934;2022-07-29T08:02:36;23.00;99.90
3854;DHT22;1942;48.770;8.934;2022-07-29T08:05:03;23.10;99.90
3854;DHT22;1942;48.770;8.934;2022-07-29T08:07:30;23.20;99.90
3854;DHT22;1942;48.770;8.934;2022-07-29T08:09:57;23.30;99.90
3854;DHT22;1942;48.770;8.934;2022-07-29T08:12:24;23.40;99.90
3854;DHT22;1942;48.770;8.934;2022-07-29T08:14:52;23.50;99.90
3854;DHT22;1942;48.770;8.934;2022-07-29T08:17:19;23.50;99.90
3854;DHT22;1942;48.770;8.934;2022-07-29T08:19:46;23.60;99.90
3854;DHT22;1942;48.770;8.934;2022-07-29T08:22:13;23.60;99.90
3854;DHT22;1942;48.770;8.934;2022-07-29T08:24:40;23.70;99.90
3854;DHT22;1942;48.770;8.934;2022-07-29T08:27:13;23.80;99.90
3854;DHT22;1942;48.770;8.934;2022-07-29T08:29:40;23.90;99.90
3854;DHT22;1942;48.770;8.934;2022-07-29T08:32:08;24.00;99.90
3854;DHT22;1942;48.770;8.934;2022-07-29T08:34:35;24.20;99.60
3854;DHT22;1942;48.770;8.934;2022-07-29T08:37:02;24.40;98.90
3854;DHT22;1942;48.770;8.934;2022-07-29T08:39:28;24.50;99.60
3854;DHT22;1942;48.770;8.934;2022-07-29T08:41:55;24.60;99.10
3854;DHT22;1942;48.770;8.934;2022-07-29T08:44:22;24.70;98.30
3854;DHT22;1942;48.770;8.934;2022-07-29T08:46:49;25.00;97.80
3854;DHT22;1942;48.770;8.934;2022-07-29T08:49:18;25.20;96.60
3854;DHT22;1942;48.770;8.934;2022-07-29T08:51:45;25.50;94.60
3854;DHT22;1942;48.770;8.934;2022-07-29T08:54:16;25.60;94.10
3854;DHT22;1942;48.770;8.934;2022-07-29T08:56:45;25.80;93.50
3854;DHT22;1942;48.770;8.934;2022-07-29T08:59:14;25.80;94.00
3854;DHT22;1942;48.770;8.934;2022-07-29T09:01:43;26.00;92.70
3854;DHT22;1942;48.770;8.934;2022-07-29T09:04:12;26.10;92.80
3854;DHT22;1942;48.770;8.934;2022-07-29T09:06:43;26.20;92.90
3854;DHT22;1942;48.770;8.934;2022-07-29T09:09:11;26.30;92.50
3854;DHT22;1942;48.770;8.934;2022-07-29T09:11:39;26.40;92.10
3854;DHT22;1942;48.770;8.934;2022-07-29T09:14:06;26.50;91.50
3854;DHT22;1942;48.770;8.934;2022-07-29T09:16:47;26.60;91.20
3854;DHT22;1942;48.770;8.934;2022-07-29T09:19:26;26.70;90.80
3854;DHT22;1942;48.770;8.934;2022-07-29T09:21:55;26.70;90.60
3854;DHT22;1942;48.770;8.934;2022-07-29T09:24:37;26.50;91.40
3854;DHT22;1942;48.770;8.934;2022-07-29T09:27:19;26.60;90.90
3854;DHT22;1942;48.770;8.934;2022-07-29T09:29:47;26.80;90.70
3854;DHT22;1942;48.770;8.934;2022-07-29T09:32:14;27.00;86.60
3854;DHT22;1942;48.770;8.934;2022-07-29T09:34:40;27.20;84.70
3854;DHT22;1942;48.770;8.934;2022-07-29T09:37:08;27.30;83.40
3854;DHT22;1942;48.770;8.934;2022-07-29T09:39:39;27.30;87.20
3854;DHT22;1942;48.770;8.934;2022-07-29T09:42:11;27.50;85.00
3854;DHT22;1942;48.770;8.934;2022-07-29T09:44:43;27.40;84.40
3854;DHT22;1942;48.770;8.934;2022-07-29T09:47:10;27.50;85.70
3854;DHT22;1942;48.770;8.934;2022-07-29T09:49:51;27.40;84.50
3854;DHT22;1942;48.770;8.934;2022-07-29T09:52:19;27.20;84.60
3854;DHT22;1942;48.770;8.934;2022-07-29T09:54:47;26.80;85.20
3854;DHT22;1942;48.770;8.934;2022-07-29T09:57:25;26.50;86.70
3854;DHT22;1942;48.770;8.934;2022-07-29T09:59:56;26.20;88.40
3854;DHT22;1942;48.770;8.934;2022-07-29T10:02:28;26.10;87.90
3854;DHT22;1942;48.770;8.934;2022-07-29T10:04:56;25.90;88.70
3854;DHT22;1942;48.770;8.934;2022-07-29T10:07:24;25.70;90.00
3854;DHT22;1942;48.770;8.934;2022-07-29T10:09:56;25.60;89.70
3854;DHT22;1942;48.770;8.934;2022-07-29T10:12:23;25.30;90.10
3854;DHT22;1942;48.770;8.934;2022-07-29T10:14:51;25.20;90.70
3854;DHT22;1942;48.770;8.934;2022-07-29T10:17:18;25.10;90.20
3854;DHT22;1942;48.770;8.934;2022-07-29T10:19:45;25.10;90.50
3854;DHT22;1942;48.770;8.934;2022-07-29T10:22:12;24.90;91.60
3854;DHT22;1942;48.770;8.934;2022-07-29T10:24:40;24.80;93.80
3854;DHT22;1942;48.770;8.934;2022-07-29T10:27:08;24.60;99.40
3854;DHT22;1942;48.770;8.934;2022-07-29T10:29:35;23.90;99.90
3854;DHT22;1942;48.770;8.934;2022-07-29T10:35:09;22.30;99.90
3854;DHT22;1942;48.770;8.934;2022-07-29T10:37:46;21.50;99.90
3854;DHT22;1942;48.770;8.934;2022-07-29T10:40:26;20.90;99.90
3854;DHT22;1942;48.770;8.934;2022-07-29T10:43:17;20.50;99.90
3854;DHT22;1942;48.770;8.934;2022-07-29T10:45:45;20.20;99.90
3854;DHT22;1942;48.770;8.934;2022-07-29T10:48:13;20.10;99.90
3854;DHT22;1942;48.770;8.934;2022-07-29T10:50:53;20.00;99.90
3854;DHT22;1942;48.770;8.934;2022-07-29T10:53:20;19.80;99.90
3854;DHT22;1942;48.770;8.934;2022-07-29T10:55:49;19.60;99.90
3854;DHT22;1942;48.770;8.934;2022-07-29T10:58:18;19.40;99.90
3854;DHT22;1942;48.770;8.934;2022-07-29T11:00:46;19.40;99.90
3854;DHT22;1942;48.770;8.934;2022-07-29T11:03:44;19.40;99.90
3854;DHT22;1942;48.770;8.934;2022-07-29T11:06:12;19.40;99.90
3854;DHT22;1942;48.770;8.934;2022-07-29T11:08:40;19.50;99.90
3854;DHT22;1942;48.770;8.934;2022-07-29T11:11:38;19.50;99.90
3854;DHT22;1942;48.770;8.934;2022-07-29T11:14:06;19.60;99.90
3854;DHT22;1942;48.770;8.934;2022-07-29T11:17:02;19.70;99.90
3854;DHT22;1942;48.770;8.934;2022-07-29T11:19:29;19.90;99.90
3854;DHT22;1942;48.770;8.934;2022-07-29T11:21:56;20.30;99.90
3854;DHT22;1942;48.770;8.934;2022-07-29T11:24:24;20.50;99.90
3854;DHT22;1942;48.770;8.934;2022-07-29T11:27:08;20.90;99.90
3854;DHT22;1942;48.770;8.934;2022-07-29T11:29:38;21.00;99.90
3854;DHT22;1942;48.770;8.934;2022-07-29T11:32:09;21.00;99.90
3854;DHT22;1942;48.770;8.934;2022-07-29T11:34:37;21.00;99.90
3854;DHT22;1942;48.770;8.934;2022-07-29T11:37:22;20.80;99.90
3854;DHT22;1942;48.770;8.934;2022-07-29T11:40:14;20.60;99.90
3854;DHT22;1942;48.770;8.934;2022-07-29T11:42:51;20.40;99.90
3854;DHT22;1942;48.770;8.934;2022-07-29T11:45:24;20.30;99.90
3854;DHT22;1942;48.770;8.934;2022-07-29T11:47:56;20.20;99.90
3854;DHT22;1942;48.770;8.934;2022-07-29T11:50:33;20.20;99.90
3854;DHT22;1942;48.770;8.934;2022-07-29T11:53:00;20.30;99.90
3854;DHT22;1942;48.770;8.934;2022-07-29T11:55:28;20.50;99.90
3854;DHT22;1942;48.770;8.934;2022-07-29T11:57:59;20.70;99.90
3854;DHT22;1942;48.770;8.934;2022-07-29T12:00:29;20.70;99.90
3854;DHT22;1942;48.770;8.934;2022-07-29T12:02:58;20.70;99.90
3854;DHT22;1942;48.770;8.934;2022-07-29T12:05:37;20.60;99.90
3854;DHT22;1942;48.770;8.934;2022-07-29T12:08:12;20.40;99.90
3854;DHT22;1942;48.770;8.934;2022-07-29T12:10:40;20.40;99.90
3854;DHT22;1942;48.770;8.934;2022-07-29T12:13:08;20.40;99.90
3854;DHT22;1942;48.770;8.934;2022-07-29T12:15:36;20.30;99.90
3854;DHT22;1942;48.770;8.934;2022-07-29T12:18:13;20.20;99.90
3854;DHT22;1942;48.770;8.934;2022-07-29T12:20:40;20.00;99.90
3854;DHT22;1942;48.770;8.934;2022-07-29T12:23:08;19.90;99.90
3854;DHT22;1942;48.770;8.934;2022-07-29T12:25:37;19.70;99.90
3854;DHT22;1942;48.770;8.934;2022-07-29T12:28:07;19.70;99.90
3854;DHT22;1942;48.770;8.934;2022-07-29T12:30:40;19.60;99.90
3854;DHT22;1942;48.770;8.934;2022-07-29T12:33:17;19.60;99.90
3854;DHT22;1942;48.770;8.934;2022-07-29T12:35:46;19.50;99.90
3854;DHT22;1942;48.770;8.934;2022-07-29T12:38:14;19.60;99.90
3854;DHT22;1942;48.770;8.934;2022-07-29T12:40:42;19.60;99.90
3854;DHT22;1942;48.770;8.934;2022-07-29T12:43:11;19.70;99.90
3854;DHT22;1942;48.770;8.934;2022-07-29T12:45:43;19.70;99.90
3854;DHT22;1942;48.770;8.934;2022-07-29T12:48:10;19.80;99.90
3854;DHT22;1942;48.770;8.934;2022-07-29T12:50:52;19.80;99.90
3854;DHT22;1942;48.770;8.934;2022-07-29T12:53:19;19.80;99.90
3854;DHT22;1942;48.770;8.934;2022-07-29T12:55:49;19.80;99.90
3854;DHT22;1942;48.770;8.934;2022-07-29T12:58:31;19.70;99.90
3854;DHT22;1942;48.770;8.934;2022-07-29T13:01:03;19.70;99.90
3854;DHT22;1942;48.770;8.934;2022-07-29T13:03:42;19.60;99.90
3854;DHT22;1942;48.770;8.934;2022-07-29T13:06:28;19.60;99.90
3854;DHT22;1942;48.770;8.934;2022-07-29T13:09:07;19.40;99.90
3854;DHT22;1942;48.770;8.934;2022-07-29T13:11:37;19.30;99.90
3854;DHT22;1942;48.770;8.934;2022-07-29T13:14:05;19.30;99.90
3854;DHT22;1942;48.770;8.934;2022-07-29T13:16:35;19.20;99.90
3854;DHT22;1942;48.770;8.934;2022-07-29T13:19:04;19.30;99.90
3854;DHT22;1942;48.770;8.934;2022-07-29T13:21:31;19.30;99.90
3854;DHT22;1942;48.770;8.934;2022-07-29T13:23:59;19.20;99.90
3854;DHT22;1942;48.770;8.934;2022-07-29T13:26:25;19.30;99.90
3854;DHT22;1942;48.770;8.934;2022-07-29T13:28:53;19.50;99.90
3854;DHT22;1942;48.770;8.934;2022-07-29T13:31:20;19.60;99.90
3854;DHT22;1942;48.770;8.934;2022-07-29T13:33:48;19.80;99.90
3854;DHT22;1942;48.770;8.934;2022-07-29T13:36:15;20.00;99.90
3854;DHT22;1942;48.770;8.934;2022-07-29T13:38:43;20.20;99.90
3854;DHT22;1942;48.770;8.934;2022-07-29T13:41:10;20.50;99.90
3854;DHT22;1942;48.770;8.934;2022-07-29T13:43:37;20.70;99.90
3854;DHT22;1942;48.770;8.934;2022-07-29T13:46:03;20.90;99.90
3854;DHT22;1942;48.770;8.934;2022-07-29T13:48:30;20.90;99.90
3854;DHT22;1942;48.770;8.934;2022-07-29T13:50:59;20.70;99.90
3854;DHT22;1942;48.770;8.934;2022-07-29T13:53:26;20.60;99.90
3854;DHT22;1942;48.770;8.934;2022-07-29T13:55:56;20.50;99.90
3854;DHT22;1942;48.770;8.934;2022-07-29T13:58:22;20.50;99.90
3854;DHT22;1942;48.770;8.934;2022-07-29T14:00:49;20.50;99.90
3854;DHT22;1942;48.770;8.934;2022-07-29T14:03:16;20.50;99.90
3854;DHT22;1942;48.770;8.934;2022-07-29T14:05:43;20.50;99.90
3854;DHT22;1942;48.770;8.934;2022-07-29T14:08:12;20.50;99.90
3854;DHT22;1942;48.770;8.934;2022-07-29T14:10:39;20.50;99.90
3854;DHT22;1942;48.770;8.934;2022-07-29T14:13:06;20.50;99.90
3854;DHT22;1942;48.770;8.934;2022-07-29T14:15:32;20.60;99.90
3854;DHT22;1942;48.770;8.934;2022-07-29T14:17:59;20.70;99.90
3854;DHT22;1942;48.770;8.934;2022-07-29T14:20:27;20.70;99.90
3854;DHT22;1942;48.770;8.934;2022-07-29T14:22:55;20.70;99.90
3854;DHT22;1942;48.770;8.934;2022-07-29T14:25:23;20.70;99.90
3854;DHT22;1942;48.770;8.934;2022-07-29T14:27:50;20.90;99.90
3854;DHT22;1942;48.770;8.934;2022-07-29T14:30:18;20.90;99.90
3854;DHT22;1942;48.770;8.934;2022-07-29T14:32:45;20.90;99.90
3854;DHT22;1942;48.770;8.934;2022-07-29T14:35:12;21.00;99.90
3854;DHT22;1942;48.770;8.934;2022-07-29T14:37:39;21.00;99.90
3854;DHT22;1942;48.770;8.934;2022-07-29T14:40:07;21.10;99.90
3854;DHT22;1942;48.770;8.934;2022-07-29T14:42:35;21.10;99.90
3854;DHT22;1942;48.770;8.934;2022-07-29T14:45:03;21.10;99.90
3854;DHT22;1942;48.770;8.934;2022-07-29T14:47:31;21.20;99.90
3854;DHT22;1942;48.770;8.934;2022-07-29T14:49:57;21.30;99.90
3854;DHT22;1942;48.770;8.934;2022-07-29T14:52:24;21.40;99.90
3854;DHT22;1942;48.770;8.934;2022-07-29T14:54:51;21.40;99.90
3854;DHT22;1942;48.770;8.934;2022-07-29T14:57:18;21.40;99.90
3854;DHT22;1942;48.770;8.934;2022-07-29T14:59:46;21.40;99.90
3854;DHT22;1942;48.770;8.934;2022-07-29T15:02:13;21.40;99.90
3854;DHT22;1942;48.770;8.934;2022-07-29T15:04:40;21.40;99.90
3854;DHT22;1942;48.770;8.934;2022-07-29T15:07:06;21.40;99.90
3854;DHT22;1942;48.770;8.934;2022-07-29T15:09:33;21.50;99.90
3854;DHT22;1942;48.770;8.934;2022-07-29T15:12:00;21.50;99.90
3854;DHT22;1942;48.770;8.934;2022-07-29T15:14:28;21.50;99.90
3854;DHT22;1942;48.770;8.934;2022-07-29T15:16:56;21.50;99.90
3854;DHT22;1942;48.770;8.934;2022-07-29T15:19:23;21.50;99.90
3854;DHT22;1942;48.770;8.934;2022-07-29T15:21:49;21.50;99.90
3854;DHT22;1942;48.770;8.934;2022-07-29T15:24:17;21.60;99.90
3854;DHT22;1942;48.770;8.934;2022-07-29T15:26:43;21.70;99.90
3854;DHT22;1942;48.770;8.934;2022-07-29T15:29:10;21.70;99.90
3854;DHT22;1942;48.770;8.934;2022-07-29T15:31:37;21.70;99.90
3854;DHT22;1942;48.770;8.934;2022-07-29T15:34:05;21.80;99.90
3854;DHT22;1942;48.770;8.934;2022-07-29T15:36:32;21.80;99.90
3854;DHT22;1942;48.770;8.934;2022-07-29T15:38:59;21.80;99.90
3854;DHT22;1942;48.770;8.934;2022-07-29T15:41:26;21.80;99.90
3854;DHT22;1942;48.770;8.934;2022-07-29T15:43:53;21.80;99.90
3854;DHT22;1942;48.770;8.934;2022-07-29T15:46:20;21.80;99.90
3854;DHT22;1942;48.770;8.934;2022-07-29T15:49:06;21.80;99.90
3854;DHT22;1942;48.770;8.934;2022-07-29T15:51:33;21.70;99.90
3854;DHT22;1942;48.770;8.934;2022-07-29T15:54:00;21.70;99.90
3854;DHT22;1942;48.770;8.934;2022-07-29T15:56:27;21.70;99.90
3854;DHT22;1942;48.770;8.934;2022-07-29T15:58:54;21.80;99.90
3854;DHT22;1942;48.770;8.934;2022-07-29T16:01:21;22.00;99.90
3854;DHT22;1942;48.770;8.934;2022-07-29T16:03:47;22.00;99.90
3854;DHT22;1942;48.770;8.934;2022-07-29T16:06:16;21.90;99.90
3854;DHT22;1942;48.770;8.934;2022-07-29T16:08:43;21.90;99.90
3854;DHT22;1942;48.770;8.934;2022-07-29T16:11:09;21.90;99.90
3854;DHT22;1942;48.770;8.934;2022-07-29T16:13:36;21.90;99.90
3854;DHT22;1942;48.770;8.934;2022-07-29T16:16:03;21.80;99.90
3854;DHT22;1942;48.770;8.934;2022-07-29T16:18:30;21.80;99.90
3854;DHT22;1942;48.770;8.934;2022-07-29T16:20:57;21.80;99.90